sensor_id;sensor_type;location;lat;lon;timestamp;pressure;altitude;pressure_sealevel;temperature;humidity
74635;BME280;63140;56.306;43.984;2022-09-03T00:02:06;99364.72;;;7.97;81.50
74635;BME280;63140;56.306;43.984;2022-09-03T00:04:41;99365.47;;;7.98;81.62
74635;BME280;63140;56.306;43.984;2022-09-03T00:07:17;99366.91;;;7.92;81.61
74635;BME280;63140;56.306;43.984;2022-09-03T00:09:48;99378.63;;;7.91;81.73
74635;BME280;63140;56.306;43.984;2022-09-03T00:12:22;99376.75;;;7.91;81.81
74635;BME280;63140;56.306;43.984;2022-09-03T00:15:03;99375.25;;;7.94;81.89
74635;BME280;63140;56.306;43.984;2022-09-03T00:22:38;99387.22;;;7.77;82.60
74635;BME280;63140;56.306;43.984;2022-09-03T00:25:11;99391.34;;;7.78;82.82
74635;BME280;63140;56.306;43.984;2022-09-03T00:27:39;99407.13;;;7.67;83.06
74635;BME280;63140;56.306;43.984;2022-09-03T00:30:12;99406.09;;;7.79;83.16
74635;BME280;63140;56.306;43.984;2022-09-03T00:32:55;99399.28;;;7.78;82.96
74635;BME280;63140;56.306;43.984;2022-09-03T00:35:52;99405.75;;;7.84;82.58
74635;BME280;63140;56.306;43.984;2022-09-03T00:38:16;99411.38;;;7.79;82.81
74635;BME280;63140;56.306;43.984;2022-09-03T00:41:26;99414.41;;;7.77;82.88
74635;BME280;63140;56.306;43.984;2022-09-03T00:44:06;99406.84;;;7.76;82.99
74635;BME280;63140;56.306;43.984;2022-09-03T00:46:51;99423.41;;;7.69;83.12
74635;BME280;63140;56.306;43.984;2022-09-03T00:49:33;99425.63;;;7.67;83.10
74635;BME280;63140;56.306;43.984;2022-09-03T00:52:33;99435.13;;;7.75;83.12
74635;BME280;63140;56.306;43.984;2022-09-03T01:00:54;99430.25;;;7.77;82.93
74635;BME280;63140;56.306;43.984;2022-09-03T01:04:02;99434.06;;;7.80;82.82
74635;BME280;63140;56.306;43.984;2022-09-03T01:10:00;99429.59;;;7.87;82.50
74635;BME280;63140;56.306;43.984;2022-09-03T01:15:19;99438.53;;;7.72;83.07
74635;BME280;63140;56.306;43.984;2022-09-03T01:17:58;99440.03;;;7.73;82.74
74635;BME280;63140;56.306;43.984;2022-09-03T01:33:45;99465.50;;;7.92;82.81
74635;BME280;63140;56.306;43.984;2022-09-03T01:36:19;99469.63;;;7.89;82.91
74635;BME280;63140;56.306;43.984;2022-09-03T01:39:01;99465.09;;;7.86;83.02
74635;BME280;63140;56.306;43.984;2022-09-03T01:49:40;99481.09;;;8.01;81.99
74635;BME280;63140;56.306;43.984;2022-09-03T01:57:49;99482.22;;;8.03;82.28
74635;BME280;63140;56.306;43.984;2022-09-03T02:00:21;99483.72;;;8.01;82.43
74635;BME280;63140;56.306;43.984;2022-09-03T02:02:49;99481.81;;;7.98;82.42
74635;BME280;63140;56.306;43.984;2022-09-03T02:07:56;99483.34;;;8.02;82.23
74635;BME280;63140;56.306;43.984;2022-09-03T02:10:37;99487.22;;;8.12;82.31
74635;BME280;63140;56.306;43.984;2022-09-03T02:13:15;99494.06;;;8.17;81.90
74635;BME280;63140;56.306;43.984;2022-09-03T02:15:44;99500.16;;;8.24;81.43
74635;BME280;63140;56.306;43.984;2022-09-03T02:18:16;99505.41;;;8.21;81.63
74635;BME280;63140;56.306;43.984;2022-09-03T02:20:44;99513.78;;;8.26;81.60
74635;BME280;63140;56.306;43.984;2022-09-03T02:23:13;99514.19;;;8.28;81.31
74635;BME280;63140;56.306;43.984;2022-09-03T02:25:43;99514.50;;;8.23;81.22
74635;BME280;63140;56.306;43.984;2022-09-03T02:28:10;99519.47;;;8.28;81.19
74635;BME280;63140;56.306;43.984;2022-09-03T02:30:38;99512.66;;;8.27;81.39
74635;BME280;63140;56.306;43.984;2022-09-03T02:33:04;99519.06;;;8.23;81.35
74635;BME280;63140;56.306;43.984;2022-09-03T02:35:30;99516.84;;;8.28;81.30
74635;BME280;63140;56.306;43.984;2022-09-03T02:37:55;99525.88;;;8.27;81.46
74635;BME280;63140;56.306;43.984;2022-09-03T02:40:21;99522.84;;;8.25;81.22
74635;BME280;63140;56.306;43.984;2022-09-03T02:42:47;99525.09;;;8.23;81.52
74635;BME280;63140;56.306;43.984;2022-09-03T02:45:31;99528.09;;;8.18;81.58
74635;BME280;63140;56.306;43.984;2022-09-03T02:47:59;99530.38;;;8.23;81.24
74635;BME280;63140;56.306;43.984;2022-09-03T02:50:25;99531.91;;;8.24;81.06
74635;BME280;63140;56.306;43.984;2022-09-03T02:52:51;99539.84;;;8.24;81.32
74635;BME280;63140;56.306;43.984;2022-09-03T02:55:18;99554.59;;;8.25;81.19
74635;BME280;63140;56.306;43.984;2022-09-03T02:57:45;99560.66;;;8.26;81.36
74635;BME280;63140;56.306;43.984;2022-09-03T03:00:29;99561.41;;;8.26;81.43
74635;BME280;63140;56.306;43.984;2022-09-03T03:02:55;99569.78;;;8.32;80.91
74635;BME280;63140;56.306;43.984;2022-09-03T03:05:26;99572.06;;;8.33;80.70
74635;BME280;63140;56.306;43.984;2022-09-03T03:07:53;99584.84;;;8.28;81.21
74635;BME280;63140;56.306;43.984;2022-09-03T03:10:22;99586.75;;;8.31;81.11
74635;BME280;63140;56.306;43.984;2022-09-03T03:12:47;99591.06;;;8.43;80.60
74635;BME280;63140;56.306;43.984;2022-09-03T03:15:13;99594.84;;;8.45;80.27
74635;BME280;63140;56.306;43.984;2022-09-03T03:17:40;99603.78;;;8.30;80.40
74635;BME280;63140;56.306;43.984;2022-09-03T03:20:06;99597.66;;;8.22;80.72
74635;BME280;63140;56.306;43.984;2022-09-03T03:22:32;99608.34;;;8.33;80.36
74635;BME280;63140;56.306;43.984;2022-09-03T03:24:58;99602.38;;;8.40;80.17
74635;BME280;63140;56.306;43.984;2022-09-03T03:27:24;99600.91;;;8.46;79.87
74635;BME280;63140;56.306;43.984;2022-09-03T03:29:50;99604.00;;;8.51;79.69
74635;BME280;63140;56.306;43.984;2022-09-03T03:32:16;99614.56;;;8.48;79.13
74635;BME280;63140;56.306;43.984;2022-09-03T03:34:42;99609.91;;;8.38;79.94
74635;BME280;63140;56.306;43.984;2022-09-03T03:37:08;99620.44;;;8.34;79.85
74635;BME280;63140;56.306;43.984;2022-09-03T03:39:34;99618.59;;;8.38;79.37
74635;BME280;63140;56.306;43.984;2022-09-03T03:42:00;99618.53;;;8.34;78.91
74635;BME280;63140;56.306;43.984;2022-09-03T03:44:26;99627.00;;;8.44;79.01
74635;BME280;63140;56.306;43.984;2022-09-03T03:46:51;99616.84;;;8.53;78.74
74635;BME280;63140;56.306;43.984;2022-09-03T03:49:17;99614.56;;;8.48;78.47
74635;BME280;63140;56.306;43.984;2022-09-03T03:51:43;99622.91;;;8.50;78.64
74635;BME280;63140;56.306;43.984;2022-09-03T03:54:09;99637.22;;;8.49;78.83
74635;BME280;63140;56.306;43.984;2022-09-03T03:56:35;99642.53;;;8.49;77.93
74635;BME280;63140;56.306;43.984;2022-09-03T03:59:01;99641.88;;;8.59;78.20
74635;BME280;63140;56.306;43.984;2022-09-03T04:01:27;99644.25;;;8.71;77.81
74635;BME280;63140;56.306;43.984;2022-09-03T04:03:57;99643.91;;;8.76;77.54
74635;BME280;63140;56.306;43.984;2022-09-03T04:06:25;99654.06;;;8.67;77.54
74635;BME280;63140;56.306;43.984;2022-09-03T04:08:51;99650.22;;;8.61;78.01
74635;BME280;63140;56.306;43.984;2022-09-03T04:11:19;99653.97;;;8.56;78.62
74635;BME280;63140;56.306;43.984;2022-09-03T04:13:45;99665.16;;;8.43;78.80
74635;BME280;63140;56.306;43.984;2022-09-03T04:18:43;99655.44;;;8.54;78.40
74635;BME280;63140;56.306;43.984;2022-09-03T04:21:11;99661.91;;;8.56;78.12
74635;BME280;63140;56.306;43.984;2022-09-03T04:23:40;99657.09;;;8.69;78.21
74635;BME280;63140;56.306;43.984;2022-09-03T04:26:07;99663.84;;;8.63;77.71
74635;BME280;63140;56.306;43.984;2022-09-03T04:28:33;99661.59;;;8.65;77.74
74635;BME280;63140;56.306;43.984;2022-09-03T04:31:03;99656.78;;;8.74;77.42
74635;BME280;63140;56.306;43.984;2022-09-03T04:33:31;99665.44;;;8.71;77.45
74635;BME280;63140;56.306;43.984;2022-09-03T04:38:33;99670.56;;;8.53;78.05
74635;BME280;63140;56.306;43.984;2022-09-03T04:40:58;99676.34;;;8.66;77.84
74635;BME280;63140;56.306;43.984;2022-09-03T04:43:28;99679.47;;;8.75;77.47
74635;BME280;63140;56.306;43.984;2022-09-03T04:45:58;99685.25;;;8.88;76.98
74635;BME280;63140;56.306;43.984;2022-09-03T04:48:25;99694.34;;;8.91;77.07
74635;BME280;63140;56.306;43.984;2022-09-03T04:50:51;99691.31;;;8.89;76.40
74635;BME280;63140;56.306;43.984;2022-09-03T04:53:18;99691.34;;;8.92;76.69
74635;BME280;63140;56.306;43.984;2022-09-03T04:55:43;99681.69;;;9.14;76.44
74635;BME280;63140;56.306;43.984;2022-09-03T04:58:09;99688.53;;;9.22;76.06
74635;BME280;63140;56.306;43.984;2022-09-03T05:00:36;99693.97;;;9.40;75.20
74635;BME280;63140;56.306;43.984;2022-09-03T05:03:02;99697.09;;;9.56;75.05
74635;BME280;63140;56.306;43.984;2022-09-03T05:05:31;99682.34;;;9.55;74.48
74635;BME280;63140;56.306;43.984;2022-09-03T05:08:00;99685.81;;;9.70;74.08
74635;BME280;63140;56.306;43.984;2022-09-03T05:10:26;99690.47;;;9.88;73.17
74635;BME280;63140;56.306;43.984;2022-09-03T05:13:01;99689.03;;;10.04;73.25
74635;BME280;63140;56.306;43.984;2022-09-03T05:15:28;99696.53;;;9.88;72.78
74635;BME280;63140;56.306;43.984;2022-09-03T05:17:58;99701.09;;;9.91;72.82
74635;BME280;63140;56.306;43.984;2022-09-03T05:20:24;99710.88;;;9.80;72.75
74635;BME280;63140;56.306;43.984;2022-09-03T05:22:51;99713.13;;;9.78;73.00
74635;BME280;63140;56.306;43.984;2022-09-03T05:25:17;99711.69;;;9.91;73.06
74635;BME280;63140;56.306;43.984;2022-09-03T05:27:43;99723.81;;;9.92;72.11
74635;BME280;63140;56.306;43.984;2022-09-03T05:30:11;99712.44;;;9.92;72.58
74635;BME280;63140;56.306;43.984;2022-09-03T05:32:37;99723.16;;;10.13;72.60
74635;BME280;63140;56.306;43.984;2022-09-03T05:35:03;99727.00;;;10.23;71.43
74635;BME280;63140;56.306;43.984;2022-09-03T05:37:29;99731.16;;;10.24;71.56
74635;BME280;63140;56.306;43.984;2022-09-03T05:39:55;99738.34;;;10.20;71.49
74635;BME280;63140;56.306;43.984;2022-09-03T05:42:20;99722.50;;;10.27;71.04
74635;BME280;63140;56.306;43.984;2022-09-03T05:44:47;99724.72;;;10.21;70.99
74635;BME280;63140;56.306;43.984;2022-09-03T05:47:14;99727.41;;;10.25;71.26
74635;BME280;63140;56.306;43.984;2022-09-03T05:49:41;99727.81;;;10.34;71.32
74635;BME280;63140;56.306;43.984;2022-09-03T05:52:06;99735.34;;;10.25;70.59
74635;BME280;63140;56.306;43.984;2022-09-03T05:54:34;99752.75;;;10.15;70.79
74635;BME280;63140;56.306;43.984;2022-09-03T05:57:00;99751.16;;;10.03;71.35
74635;BME280;63140;56.306;43.984;2022-09-03T05:59:26;99749.69;;;10.13;71.18
74635;BME280;63140;56.306;43.984;2022-09-03T06:01:52;99758.06;;;10.15;71.05
74635;BME280;63140;56.306;43.984;2022-09-03T06:04:18;99769.38;;;10.05;70.58
74635;BME280;63140;56.306;43.984;2022-09-03T06:06:45;99761.78;;;10.03;70.38
74635;BME280;63140;56.306;43.984;2022-09-03T06:09:14;99761.81;;;10.14;70.47
74635;BME280;63140;56.306;43.984;2022-09-03T06:11:41;99767.13;;;10.11;70.74
74635;BME280;63140;56.306;43.984;2022-09-03T06:14:09;99759.16;;;10.14;70.51
74635;BME280;63140;56.306;43.984;2022-09-03T06:16:41;99766.38;;;10.14;70.59
74635;BME280;63140;56.306;43.984;2022-09-03T06:19:08;99768.00;;;10.25;70.47
74635;BME280;63140;56.306;43.984;2022-09-03T06:21:45;99765.72;;;10.31;69.79
74635;BME280;63140;56.306;43.984;2022-09-03T06:24:19;99767.31;;;10.43;69.61
74635;BME280;63140;56.306;43.984;2022-09-03T06:26:47;99768.41;;;10.38;68.66
74635;BME280;63140;56.306;43.984;2022-09-03T06:29:13;99770.34;;;10.48;68.39
74635;BME280;63140;56.306;43.984;2022-09-03T06:31:40;99770.34;;;10.48;68.03
74635;BME280;63140;56.306;43.984;2022-09-03T06:34:06;99776.41;;;10.49;68.09
74635;BME280;63140;56.306;43.984;2022-09-03T06:36:32;99774.94;;;10.62;68.06
74635;BME280;63140;56.306;43.984;2022-09-03T06:38:58;99780.22;;;10.48;67.72
74635;BME280;63140;56.306;43.984;2022-09-03T06:41:26;99775.28;;;10.43;68.50
74635;BME280;63140;56.306;43.984;2022-09-03T06:43:56;99772.66;;;10.57;68.48
74635;BME280;63140;56.306;43.984;2022-09-03T06:46:24;99771.56;;;10.76;67.65
74635;BME280;63140;56.306;43.984;2022-09-03T06:48:50;99767.41;;;10.79;67.41
74635;BME280;63140;56.306;43.984;2022-09-03T06:51:24;99781.09;;;10.95;67.70
74635;BME280;63140;56.306;43.984;2022-09-03T06:53:52;99770.13;;;11.14;67.52
74635;BME280;63140;56.306;43.984;2022-09-03T06:56:23;99770.88;;;11.04;66.93
74635;BME280;63140;56.306;43.984;2022-09-03T06:58:59;99775.81;;;11.09;67.06
74635;BME280;63140;56.306;43.984;2022-09-03T07:01:27;99778.81;;;10.83;67.23
74635;BME280;63140;56.306;43.984;2022-09-03T07:03:57;99776.56;;;10.92;67.38
74635;BME280;63140;56.306;43.984;2022-09-03T07:06:24;99777.69;;;10.98;66.87
74635;BME280;63140;56.306;43.984;2022-09-03T07:08:52;99778.84;;;11.11;67.21
74635;BME280;63140;56.306;43.984;2022-09-03T07:11:19;99787.97;;;11.32;66.86
74635;BME280;63140;56.306;43.984;2022-09-03T07:13:48;99781.16;;;11.23;67.03
74635;BME280;63140;56.306;43.984;2022-09-03T07:16:20;99784.91;;;11.08;66.00
74635;BME280;63140;56.306;43.984;2022-09-03T07:18:47;99776.56;;;11.10;66.44
74635;BME280;63140;56.306;43.984;2022-09-03T07:21:15;99783.41;;;11.11;66.07
74635;BME280;63140;56.306;43.984;2022-09-03T07:23:42;99789.88;;;11.35;65.68
74635;BME280;63140;56.306;43.984;2022-09-03T07:26:14;99785.31;;;11.60;64.73
74635;BME280;63140;56.306;43.984;2022-09-03T07:28:41;99791.00;;;11.87;64.78
74635;BME280;63140;56.306;43.984;2022-09-03T07:31:19;99784.50;;;12.03;64.18
74635;BME280;63140;56.306;43.984;2022-09-03T07:34:10;99788.72;;;11.71;64.39
74635;BME280;63140;56.306;43.984;2022-09-03T07:36:41;99784.56;;;11.35;65.89
74635;BME280;63140;56.306;43.984;2022-09-03T07:39:09;99795.56;;;11.30;65.68
74635;BME280;63140;56.306;43.984;2022-09-03T07:41:39;99792.53;;;11.13;66.46
74635;BME280;63140;56.306;43.984;2022-09-03T07:44:07;99794.81;;;11.33;66.16
74635;BME280;63140;56.306;43.984;2022-09-03T07:46:36;99791.78;;;11.41;66.22
74635;BME280;63140;56.306;43.984;2022-09-03T07:49:21;99792.53;;;11.49;65.29
74635;BME280;63140;56.306;43.984;2022-09-03T07:51:47;99798.22;;;11.30;65.96
74635;BME280;63140;56.306;43.984;2022-09-03T07:54:15;99800.88;;;11.44;65.75
74635;BME280;63140;56.306;43.984;2022-09-03T07:56:40;99797.84;;;11.49;65.84
74635;BME280;63140;56.306;43.984;2022-09-03T07:59:07;99805.84;;;11.63;65.34
74635;BME280;63140;56.306;43.984;2022-09-03T08:01:34;99793.28;;;11.60;65.14
74635;BME280;63140;56.306;43.984;2022-09-03T08:04:01;99805.44;;;11.61;65.01
74635;BME280;63140;56.306;43.984;2022-09-03T08:06:29;99811.53;;;11.65;64.59
74635;BME280;63140;56.306;43.984;2022-09-03T08:08:58;99797.09;;;11.74;64.51
74635;BME280;63140;56.306;43.984;2022-09-03T08:11:25;99809.25;;;11.92;64.45
74635;BME280;63140;56.306;43.984;2022-09-03T08:14:02;99813.00;;;12.16;63.32
74635;BME280;63140;56.306;43.984;2022-09-03T08:16:34;99815.28;;;12.22;62.64
74635;BME280;63140;56.306;43.984;2022-09-03T08:19:00;99812.19;;;12.34;62.45
74635;BME280;63140;56.306;43.984;2022-09-03T08:21:27;99808.06;;;12.18;62.25
74635;BME280;63140;56.306;43.984;2022-09-03T08:23:54;99815.31;;;11.89;62.59
74635;BME280;63140;56.306;43.984;2022-09-03T08:26:30;99821.41;;;11.76;62.58
74635;BME280;63140;56.306;43.984;2022-09-03T08:28:57;99821.44;;;11.90;63.03
74635;BME280;63140;56.306;43.984;2022-09-03T08:31:24;99823.69;;;11.95;62.65
74635;BME280;63140;56.306;43.984;2022-09-03T08:33:53;99824.81;;;12.12;62.76
74635;BME280;63140;56.306;43.984;2022-09-03T08:38:48;99838.06;;;12.30;62.67
74635;BME280;63140;56.306;43.984;2022-09-03T08:46:54;99849.16;;;11.89;62.54
74635;BME280;63140;56.306;43.984;2022-09-03T08:49:44;99838.47;;;12.14;62.07
74635;BME280;63140;56.306;43.984;2022-09-03T09:00:22;99837.66;;;12.42;61.20
74635;BME280;63140;56.306;43.984;2022-09-03T09:05:28;99850.94;;;12.53;61.19
74635;BME280;63140;56.306;43.984;2022-09-03T09:10:47;99853.91;;;12.73;61.05
74635;BME280;63140;56.306;43.984;2022-09-03T09:23:57;99861.50;;;12.78;59.37
74635;BME280;63140;56.306;43.984;2022-09-03T09:26:24;99859.19;;;12.80;59.16
74635;BME280;63140;56.306;43.984;2022-09-03T09:28:59;99860.72;;;12.77;59.78
74635;BME280;63140;56.306;43.984;2022-09-03T09:31:27;99855.34;;;12.95;59.86
74635;BME280;63140;56.306;43.984;2022-09-03T09:34:03;99846.19;;;12.96;58.59
74635;BME280;63140;56.306;43.984;2022-09-03T09:36:37;99854.22;;;12.89;58.37
74635;BME280;63140;56.306;43.984;2022-09-03T09:39:10;99855.31;;;12.99;58.81
74635;BME280;63140;56.306;43.984;2022-09-03T09:41:41;99854.16;;;13.03;58.58
74635;BME280;63140;56.306;43.984;2022-09-03T09:44:07;99853.03;;;12.97;58.35
74635;BME280;63140;56.306;43.984;2022-09-03T09:46:38;99859.81;;;13.05;57.09
74635;BME280;63140;56.306;43.984;2022-09-03T09:49:59;99856.69;;;13.28;56.39
74635;BME280;63140;56.306;43.984;2022-09-03T09:52:25;99859.75;;;13.16;57.01
74635;BME280;63140;56.306;43.984;2022-09-03T09:55:08;99854.72;;;13.36;56.80
74635;BME280;63140;56.306;43.984;2022-09-03T09:57:35;99855.66;;;13.67;56.44
74635;BME280;63140;56.306;43.984;2022-09-03T10:00:14;99869.69;;;14.16;55.89
74635;BME280;63140;56.306;43.984;2022-09-03T10:02:51;99854.97;;;14.39;54.75
74635;BME280;63140;56.306;43.984;2022-09-03T10:05:24;99849.34;;;14.67;54.62
74635;BME280;63140;56.306;43.984;2022-09-03T10:07:58;99863.16;;;15.20;53.85
74635;BME280;63140;56.306;43.984;2022-09-03T10:10:26;99861.72;;;15.66;51.98
74635;BME280;63140;56.306;43.984;2022-09-03T10:13:09;99849.78;;;16.93;50.53
74635;BME280;63140;56.306;43.984;2022-09-03T10:15:50;99857.59;;;18.31;47.63
74635;BME280;63140;56.306;43.984;2022-09-03T10:18:43;99857.66;;;20.29;43.34
74635;BME280;63140;56.306;43.984;2022-09-03T10:21:12;99845.47;;;21.39;43.00
74635;BME280;63140;56.306;43.984;2022-09-03T10:23:55;99855.28;;;21.83;40.07
74635;BME280;63140;56.306;43.984;2022-09-03T10:26:24;99859.28;;;23.61;39.36
74635;BME280;63140;56.306;43.984;2022-09-03T10:29:02;99859.44;;;24.79;36.05
74635;BME280;63140;56.306;43.984;2022-09-03T10:31:58;99875.94;;;24.46;36.58
74635;BME280;63140;56.306;43.984;2022-09-03T10:34:42;99851.34;;;21.47;39.41
74635;BME280;63140;56.306;43.984;2022-09-03T10:37:36;99861.78;;;19.76;43.05
74635;BME280;63140;56.306;43.984;2022-09-03T10:45:54;99858.34;;;24.41;36.26
74635;BME280;63140;56.306;43.984;2022-09-03T10:56:41;99846.09;;;19.37;43.04
74635;BME280;63140;56.306;43.984;2022-09-03T11:07:07;99859.72;;;17.13;45.83
74635;BME280;63140;56.306;43.984;2022-09-03T11:09:54;99854.97;;;16.44;47.65
74635;BME280;63140;56.306;43.984;2022-09-03T11:12:27;99862.31;;;15.77;48.44
74635;BME280;63140;56.306;43.984;2022-09-03T11:15:09;99863.31;;;15.06;50.20
74635;BME280;63140;56.306;43.984;2022-09-03T11:17:41;99856.75;;;14.83;50.92
74635;BME280;63140;56.306;43.984;2022-09-03T11:20:17;99848.66;;;14.90;50.76
74635;BME280;63140;56.306;43.984;2022-09-03T11:22:45;99857.19;;;15.09;50.76
74635;BME280;63140;56.306;43.984;2022-09-03T11:25:14;99855.38;;;16.63;47.16
74635;BME280;63140;56.306;43.984;2022-09-03T11:30:22;99840.88;;;16.60;47.46
74635;BME280;63140;56.306;43.984;2022-09-03T11:32:53;99850.41;;;15.78;48.38
74635;BME280;63140;56.306;43.984;2022-09-03T11:35:48;99842.63;;;15.87;48.85
74635;BME280;63140;56.306;43.984;2022-09-03T11:38:21;99830.38;;;15.63;48.70
74635;BME280;63140;56.306;43.984;2022-09-03T11:41:13;99843.34;;;15.64;48.60
74635;BME280;63140;56.306;43.984;2022-09-03T11:43:40;99836.06;;;20.19;41.14
74635;BME280;63140;56.306;43.984;2022-09-03T11:46:27;99827.56;;;23.76;36.50
74635;BME280;63140;56.306;43.984;2022-09-03T11:49:22;99841.78;;;25.80;34.12
74635;BME280;63140;56.306;43.984;2022-09-03T11:51:57;99832.91;;;23.37;35.08
74635;BME280;63140;56.306;43.984;2022-09-03T11:54:24;99843.22;;;25.20;34.14
74635;BME280;63140;56.306;43.984;2022-09-03T11:57:06;99840.81;;;23.26;34.06
74635;BME280;63140;56.306;43.984;2022-09-03T11:59:35;99831.09;;;20.18;38.45
74635;BME280;63140;56.306;43.984;2022-09-03T12:02:30;99836.84;;;19.38;40.26
74635;BME280;63140;56.306;43.984;2022-09-03T12:19:36;99844.06;;;23.39;34.61
74635;BME280;63140;56.306;43.984;2022-09-03T12:22:05;99837.50;;;23.94;34.40
74635;BME280;63140;56.306;43.984;2022-09-03T12:24:31;99831.22;;;20.58;37.91
74635;BME280;63140;56.306;43.984;2022-09-03T12:27:00;99842.44;;;19.05;40.58
74635;BME280;63140;56.306;43.984;2022-09-03T12:29:29;99843.84;;;18.29;42.44
74635;BME280;63140;56.306;43.984;2022-09-03T12:32:07;99840.78;;;17.53;43.38
74635;BME280;63140;56.306;43.984;2022-09-03T12:34:34;99840.25;;;17.09;44.06
74635;BME280;63140;56.306;43.984;2022-09-03T12:37:00;99840.94;;;16.57;45.07
74635;BME280;63140;56.306;43.984;2022-09-03T12:39:28;99848.72;;;16.31;45.42
74635;BME280;63140;56.306;43.984;2022-09-03T12:42:11;99842.91;;;15.93;45.53
74635;BME280;63140;56.306;43.984;2022-09-03T12:44:41;99840.38;;;16.45;45.42
74635;BME280;63140;56.306;43.984;2022-09-03T12:47:11;99837.88;;;16.94;44.80
74635;BME280;63140;56.306;43.984;2022-09-03T12:49:46;99850.84;;;17.49;43.84
74635;BME280;63140;56.306;43.984;2022-09-03T12:52:28;99836.00;;;18.06;42.90
74635;BME280;63140;56.306;43.984;2022-09-03T13:00:20;99837.75;;;18.12;43.47
74635;BME280;63140;56.306;43.984;2022-09-03T13:02:55;99839.81;;;18.63;41.40
74635;BME280;63140;56.306;43.984;2022-09-03T13:05:35;99830.78;;;18.57;42.10
74635;BME280;63140;56.306;43.984;2022-09-03T13:08:06;99845.84;;;19.69;39.97
74635;BME280;63140;56.306;43.984;2022-09-03T13:10:41;99827.50;;;20.65;38.50
74635;BME280;63140;56.306;43.984;2022-09-03T13:30:55;99827.66;;;17.06;44.04
74635;BME280;63140;56.306;43.984;2022-09-03T13:33:46;99834.94;;;16.69;44.71
74635;BME280;63140;56.306;43.984;2022-09-03T13:36:20;99830.34;;;16.89;45.34
74635;BME280;63140;56.306;43.984;2022-09-03T13:38:52;99831.84;;;18.47;43.11
74635;BME280;63140;56.306;43.984;2022-09-03T13:44:13;99824.53;;;22.59;37.37
74635;BME280;63140;56.306;43.984;2022-09-03T13:49:27;99821.56;;;23.72;34.77
74635;BME280;63140;56.306;43.984;2022-09-03T13:52:41;99826.19;;;23.80;35.04
74635;BME280;63140;56.306;43.984;2022-09-03T13:55:30;99825.38;;;24.48;33.75
74635;BME280;63140;56.306;43.984;2022-09-03T14:00:34;99821.56;;;23.72;34.29
74635;BME280;63140;56.306;43.984;2022-09-03T14:03:10;99822.63;;;22.51;36.34
74635;BME280;63140;56.306;43.984;2022-09-03T14:08:52;99809.69;;;20.67;38.21
74635;BME280;63140;56.306;43.984;2022-09-03T14:14:13;99806.50;;;18.19;41.88
74635;BME280;63140;56.306;43.984;2022-09-03T14:16:52;99814.41;;;17.80;42.64
74635;BME280;63140;56.306;43.984;2022-09-03T14:19:51;99825.31;;;17.40;43.40
74635;BME280;63140;56.306;43.984;2022-09-03T14:22:24;99807.69;;;16.90;43.74
74635;BME280;63140;56.306;43.984;2022-09-03T14:25:16;99811.78;;;16.39;44.89
74635;BME280;63140;56.306;43.984;2022-09-03T14:27:43;99813.03;;;15.94;45.91
74635;BME280;63140;56.306;43.984;2022-09-03T14:33:09;99798.31;;;15.83;45.97
74635;BME280;63140;56.306;43.984;2022-09-03T14:46:35;99811.88;;;15.72;47.13
74635;BME280;63140;56.306;43.984;2022-09-03T15:05:09;99808.03;;;14.72;49.12
74635;BME280;63140;56.306;43.984;2022-09-03T15:07:44;99810.78;;;14.65;48.94
74635;BME280;63140;56.306;43.984;2022-09-03T15:10:34;99803.00;;;14.43;49.57
74635;BME280;63140;56.306;43.984;2022-09-03T15:13:24;99803.59;;;14.24;49.74
74635;BME280;63140;56.306;43.984;2022-09-03T15:16:10;99808.38;;;14.05;50.32
74635;BME280;63140;56.306;43.984;2022-09-03T15:18:47;99809.31;;;13.88;50.46
74635;BME280;63140;56.306;43.984;2022-09-03T15:21:48;99813.19;;;13.83;50.55
74635;BME280;63140;56.306;43.984;2022-09-03T15:30:11;99810.88;;;13.37;51.97
74635;BME280;63140;56.306;43.984;2022-09-03T15:43:24;99813.34;;;13.13;52.42
74635;BME280;63140;56.306;43.984;2022-09-03T15:52:20;99806.47;;;13.12;53.07
74635;BME280;63140;56.306;43.984;2022-09-03T15:55:13;99810.28;;;13.11;53.32
74635;BME280;63140;56.306;43.984;2022-09-03T15:57:47;99818.31;;;13.04;53.51
74635;BME280;63140;56.306;43.984;2022-09-03T16:03:40;99814.72;;;12.70;53.91
74635;BME280;63140;56.306;43.984;2022-09-03T16:09:21;99820.47;;;12.57;54.75
74635;BME280;63140;56.306;43.984;2022-09-03T16:14:34;99820.53;;;12.43;55.03
74635;BME280;63140;56.306;43.984;2022-09-03T16:19:42;99825.13;;;12.32;55.55
74635;BME280;63140;56.306;43.984;2022-09-03T16:25:06;99830.47;;;12.25;55.83
74635;BME280;63140;56.306;43.984;2022-09-03T16:27:56;99825.94;;;12.18;55.81
74635;BME280;63140;56.306;43.984;2022-09-03T16:41:33;99841.91;;;12.07;56.45
74635;BME280;63140;56.306;43.984;2022-09-03T16:47:02;99836.59;;;11.93;57.36
74635;BME280;63140;56.306;43.984;2022-09-03T16:49:48;99845.75;;;11.92;57.01
74635;BME280;63140;56.306;43.984;2022-09-03T16:58:18;99848.81;;;11.87;57.93
74635;BME280;63140;56.306;43.984;2022-09-03T17:03:52;99848.78;;;11.80;58.46
74635;BME280;63140;56.306;43.984;2022-09-03T17:06:33;99860.94;;;11.81;58.35
74635;BME280;63140;56.306;43.984;2022-09-03T17:14:49;99849.91;;;11.71;58.98
74635;BME280;63140;56.306;43.984;2022-09-03T17:17:54;99861.69;;;11.63;59.31
74635;BME280;63140;56.306;43.984;2022-09-03T17:20:43;99859.44;;;11.65;58.90
74635;BME280;63140;56.306;43.984;2022-09-03T17:37:51;99857.88;;;11.61;59.39
74635;BME280;63140;56.306;43.984;2022-09-03T17:40:46;99853.31;;;11.61;59.26
74635;BME280;63140;56.306;43.984;2022-09-03T17:43:36;99850.28;;;11.56;59.32
74635;BME280;63140;56.306;43.984;2022-09-03T17:48:58;99853.31;;;11.54;59.31
74635;BME280;63140;56.306;43.984;2022-09-03T17:51:41;99848.75;;;11.55;59.47
74635;BME280;63140;56.306;43.984;2022-09-03T18:02:28;99840.41;;;11.42;59.62
74635;BME280;63140;56.306;43.984;2022-09-03T18:05:02;99841.56;;;11.52;59.65